Time,TemperatureF,DewpointF,PressureIn,WindDirection,WindDirectionDegrees,WindSpeedMPH,WindSpeedGustMPH,Humidity,HourlyPrecipIn,Conditions,Clouds,dailyrainin,SoftwareType,DateUTC
2013-01-17 00:01:00,51.4,51.4,29.95,North,349,0.0,0.0,100,0.02,,,0.07,meteohub,2013-01-17 05:01:00,
2013-01-17 00:03:00,51.4,51.4,29.95,NNW,348,0.0,0.0,100,0.02,,,0.07,meteohub,2013-01-17 05:03:00,
2013-01-17 00:04:00,51.4,51.4,29.95,NNW,348,0.0,0.0,100,0.02,,,0.07,meteohub,2013-01-17 05:04:00,
2013-01-17 00:05:00,51.4,51.4,29.95,North,349,0.0,0.0,100,0.02,,,0.07,meteohub,2013-01-17 05:05:00,
2013-01-17 00:10:00,51.4,51.4,29.94,NNW,348,0.0,0.0,100,0.02,,,0.07,meteohub,2013-01-17 05:10:00,
2013-01-17 00:15:00,51.4,51.4,29.95,NNW,347,0.0,0.0,100,0.02,,,0.07,meteohub,2013-01-17 05:15:00,
2013-01-17 00:20:00,51.4,51.4,29.95,NNW,347,0.0,0.0,100,0.01,,,0.07,meteohub,2013-01-17 05:20:00,
2013-01-17 00:25:00,51.4,51.4,29.95,NNW,347,0.0,0.0,100,0.01,,,0.07,meteohub,2013-01-17 05:25:00,
2013-01-17 00:30:00,51.4,51.4,29.95,NNW,348,0.0,0.0,100,0.01,,,0.07,meteohub,2013-01-17 05:30:00,
2013-01-17 00:35:00,51.4,51.4,29.95,NNW,348,0.0,0.0,100,0.00,,,0.07,meteohub,2013-01-17 05:35:00,
2013-01-17 00:40:00,51.4,51.4,29.95,NNW,347,0.0,0.0,100,0.00,,,0.07,meteohub,2013-01-17 05:40:00,
2013-01-17 00:45:00,51.4,51.4,29.95,NNW,348,0.0,0.0,100,0.00,,,0.07,meteohub,2013-01-17 05:45:00,
2013-01-17 00:50:00,51.4,51.4,29.95,ENE,70,0.0,0.0,100,0.00,,,0.07,meteohub,2013-01-17 05:50:00,
2013-01-17 00:55:00,51.4,51.4,29.95,East,79,0.0,0.0,100,0.00,,,0.07,meteohub,2013-01-17 05:55:00,
2013-01-17 01:00:00,51.4,51.4,29.96,SSE,152,0.0,0.0,100,0.00,,,0.07,meteohub,2013-01-17 06:00:00,
2013-01-17 01:05:00,51.4,51.4,29.95,SSE,150,0.0,0.0,100,0.00,,,0.07,meteohub,2013-01-17 06:05:00,
2013-01-17 01:10:00,51.4,51.4,29.95,SSE,151,0.0,0.0,100,0.00,,,0.07,meteohub,2013-01-17 06:10:00,
2013-01-17 01:15:00,51.4,51.4,29.96,SSE,152,0.0,0.0,100,0.00,,,0.07,meteohub,2013-01-17 06:15:00,
2013-01-17 01:20:00,51.4,51.4,29.96,SSE,152,0.0,0.0,100,0.00,,,0.07,meteohub,2013-01-17 06:20:00,
2013-01-17 01:25:00,51.4,51.4,29.96,SSE,152,0.0,0.0,100,0.01,,,0.08,meteohub,2013-01-17 06:25:00,
2013-01-17 01:30:00,51.4,51.4,29.96,SSE,152,0.0,0.0,100,0.01,,,0.08,meteohub,2013-01-17 06:30:00,
2013-01-17 01:35:00,51.4,51.4,29.96,SSE,152,0.0,0.0,100,0.01,,,0.08,meteohub,2013-01-17 06:35:00,
2013-01-17 01:40:00,51.4,51.4,29.96,SSE,152,0.0,0.0,100,0.01,,,0.08,meteohub,2013-01-17 06:40:00,
2013-01-17 01:45:00,50.9,50.9,29.96,SSE,153,0.0,0.0,100,0.01,,,0.08,meteohub,2013-01-17 06:45:00,
2013-01-17 01:50:00,50.5,50.5,29.96,SSE,152,0.0,0.0,100,0.01,,,0.08,meteohub,2013-01-17 06:50:00,
2013-01-17 01:55:00,50.5,50.5,29.96,North,-999,-999.0,0.0,100,0.01,,,0.08,meteohub,2013-01-17 06:55:00,
2013-01-17 09:17:00,45.9,45.9,29.91,North,-999,-999.0,-999.0,100,-99.99,,,0.08,meteohub,2013-01-17 14:17:00,
2013-01-17 09:22:00,45.9,45.9,29.91,North,-999,-999.0,-999.0,100,0.02,,,0.11,meteohub,2013-01-17 14:22:00,
2013-01-17 09:27:00,45.9,45.9,29.91,North,359,2.0,-999.0,100,0.03,,,0.12,meteohub,2013-01-17 14:27:00,
2013-01-17 09:32:00,45.9,45.9,29.90,NNE,15,5.0,6.0,100,0.04,,,0.13,meteohub,2013-01-17 14:32:00,
2013-01-17 09:37:00,45.9,45.9,29.90,NNE,15,8.0,10.0,100,0.05,,,0.14,meteohub,2013-01-17 14:37:00,
2013-01-17 09:42:00,45.9,45.9,29.90,WSW,248,0.0,10.0,100,0.05,,,0.14,meteohub,2013-01-17 14:42:00,
2013-01-17 09:47:00,45.9,45.9,29.90,East,79,0.0,10.0,100,0.06,,,0.15,meteohub,2013-01-17 14:47:00,
2013-01-17 09:52:00,45.9,45.9,29.91,NNW,328,3.0,9.0,100,0.06,,,0.15,meteohub,2013-01-17 14:52:00,
2013-01-17 09:57:00,45.9,45.9,29.91,NNW,340,1.0,8.0,100,0.06,,,0.15,meteohub,2013-01-17 14:57:00,
2013-01-17 10:02:00,45.9,45.9,29.90,NW,315,0.0,8.0,100,0.07,,,0.16,meteohub,2013-01-17 15:02:00,
2013-01-17 10:07:00,45.9,45.9,29.89,ESE,114,0.0,5.0,100,0.09,,,0.16,meteohub,2013-01-17 15:07:00,
2013-01-17 10:12:00,45.9,45.9,29.88,North,351,0.0,7.0,100,0.10,,,0.19,meteohub,2013-01-17 15:12:00,
2013-01-17 10:17:00,45.9,45.9,29.89,NNW,335,2.0,7.0,100,0.11,,,0.20,meteohub,2013-01-17 15:17:00,
2013-01-17 10:22:00,45.7,45.7,29.88,WNW,297,4.0,8.0,100,0.10,,,0.21,meteohub,2013-01-17 15:22:00,
2013-01-17 10:27:00,45.7,45.7,29.87,NE,39,3.0,10.0,100,0.10,,,0.22,meteohub,2013-01-17 15:27:00,
2013-01-17 10:32:00,45.7,45.7,29.89,NNW,338,2.0,10.0,100,0.10,,,0.24,meteohub,2013-01-17 15:32:00,
2013-01-17 10:37:00,45.7,45.7,29.89,NNW,334,1.0,9.0,100,0.10,,,0.24,meteohub,2013-01-17 15:37:00,
2013-01-17 10:42:00,45.7,45.7,29.89,East,91,2.0,7.0,100,0.13,,,0.27,meteohub,2013-01-17 15:42:00,
2013-01-17 10:47:00,45.3,45.3,29.89,NNE,23,3.0,9.0,100,0.19,,,0.34,meteohub,2013-01-17 15:47:00,
2013-01-17 10:52:00,45.1,45.1,29.88,North,9,0.0,9.0,100,0.22,,,0.37,meteohub,2013-01-17 15:52:00,
2013-01-17 10:57:00,45.1,45.1,29.87,ESE,117,7.0,9.0,100,0.26,,,0.41,meteohub,2013-01-17 15:57:00,
2013-01-17 11:02:00,45.1,45.1,29.86,North,1,0.0,9.0,100,0.27,,,0.43,meteohub,2013-01-17 16:02:00,
2013-01-17 11:07:00,45.1,45.1,29.86,ENE,69,0.0,9.0,100,0.26,,,0.44,meteohub,2013-01-17 16:07:00,
2013-01-17 11:12:00,45.1,45.1,29.86,ENE,63,2.0,7.0,100,0.26,,,0.46,meteohub,2013-01-17 16:12:00,
2013-01-17 11:17:00,45.1,45.1,29.86,NNW,332,0.0,6.0,100,0.28,,,0.49,meteohub,2013-01-17 16:17:00,
2013-01-17 11:22:00,45.3,45.3,29.85,East,91,1.0,6.0,100,0.31,,,0.52,meteohub,2013-01-17 16:22:00,
2013-01-17 11:27:00,45.3,45.3,29.83,North,4,0.0,8.0,100,0.32,,,0.54,meteohub,2013-01-17 16:27:00,
2013-01-17 11:32:00,45.3,45.3,29.83,NNE,24,1.0,8.0,100,0.31,,,0.55,meteohub,2013-01-17 16:32:00,
2013-01-17 11:37:00,45.3,45.3,29.84,NE,47,0.0,9.0,100,0.30,,,0.55,meteohub,2013-01-17 16:37:00,
2013-01-17 11:42:00,45.3,45.3,29.85,West,281,0.0,10.0,100,0.30,,,0.58,meteohub,2013-01-17 16:42:00,
2013-01-17 11:47:00,45.3,45.3,29.83,North,8,0.0,10.0,100,0.30,,,0.65,meteohub,2013-01-17 16:47:00,
2013-01-17 11:52:00,45.3,45.3,29.83,NNE,31,3.0,11.0,100,0.29,,,0.68,meteohub,2013-01-17 16:52:00,
2013-01-17 11:57:00,45.3,45.3,29.82,NE,34,4.0,11.0,100,0.33,,,0.75,meteohub,2013-01-17 16:57:00,
2013-01-17 12:02:00,45.3,45.3,29.81,NW,323,7.0,13.0,100,0.36,,,0.79,meteohub,2013-01-17 17:02:00,
2013-01-17 12:07:00,45.3,45.3,29.80,East,89,5.0,15.0,100,0.37,,,0.82,meteohub,2013-01-17 17:07:00,
2013-01-17 12:12:00,45.3,45.3,29.80,North,8,7.0,15.0,100,0.39,,,0.86,meteohub,2013-01-17 17:12:00,
2013-01-17 12:17:00,45.3,45.3,29.80,NNE,15,5.0,15.0,100,0.36,,,0.86,meteohub,2013-01-17 17:17:00,
2013-01-17 12:22:00,45.3,45.3,29.80,ESE,118,6.0,13.0,100,0.34,,,0.87,meteohub,2013-01-17 17:22:00,
2013-01-17 12:27:00,45.3,45.3,29.80,ENE,75,7.0,13.0,100,0.36,,,0.91,meteohub,2013-01-17 17:27:00,
2013-01-17 12:32:00,45.3,45.3,29.79,NNE,18,1.0,13.0,100,0.38,,,0.93,meteohub,2013-01-17 17:32:00,
2013-01-17 12:37:00,45.3,45.1,29.78,NW,326,2.0,17.0,99,0.37,,,0.93,meteohub,2013-01-17 17:37:00,
2013-01-17 12:43:00,45.3,45.1,29.78,NE,46,2.0,17.0,99,0.35,,,0.95,meteohub,2013-01-17 17:43:00,
2013-01-17 12:48:00,45.3,45.1,29.78,WSW,250,2.0,17.0,99,0.31,,,0.96,meteohub,2013-01-17 17:48:00,
2013-01-17 12:53:00,45.3,45.1,29.77,NNW,340,3.0,16.0,99,0.26,,,0.97,meteohub,2013-01-17 17:53:00,
2013-01-17 12:58:00,45.1,45.0,29.76,North,357,7.0,16.0,99,0.23,,,0.99,meteohub,2013-01-17 17:58:00,
2013-01-17 13:03:00,45.1,45.0,29.76,North,359,9.0,16.0,99,0.20,,,1.00,meteohub,2013-01-17 18:03:00,
2013-01-17 13:08:00,45.1,45.0,29.76,NE,48,9.0,19.0,99,0.17,,,1.01,meteohub,2013-01-17 18:08:00,
2013-01-17 13:13:00,45.1,45.0,29.75,ENE,71,9.0,19.0,99,0.19,,,1.05,meteohub,2013-01-17 18:13:00,
2013-01-17 13:18:00,45.1,45.0,29.75,North,11,6.0,19.0,99,0.20,,,1.06,meteohub,2013-01-17 18:18:00,
2013-01-17 13:23:00,45.0,44.8,29.75,North,352,6.0,18.0,99,0.18,,,1.07,meteohub,2013-01-17 18:23:00,
2013-01-17 13:28:00,45.0,44.8,29.75,North,6,6.0,18.0,99,0.20,,,1.11,meteohub,2013-01-17 18:28:00,
2013-01-17 13:33:00,45.0,44.8,29.75,WNW,300,4.0,18.0,99,0.22,,,1.12,meteohub,2013-01-17 18:33:00,
2013-01-17 13:38:00,45.0,44.8,29.74,NNW,347,5.0,12.0,99,0.25,,,1.19,meteohub,2013-01-17 18:38:00,
2013-01-17 13:43:00,45.0,44.8,29.75,NW,314,0.0,12.0,99,0.30,,,1.25,meteohub,2013-01-17 18:43:00,
2013-01-17 13:48:00,45.0,44.8,29.74,NE,34,3.0,13.0,99,0.32,,,1.26,meteohub,2013-01-17 18:48:00,
2013-01-17 13:53:00,45.0,44.8,29.74,NW,320,4.0,13.0,99,0.34,,,1.32,meteohub,2013-01-17 18:53:00,
2013-01-17 13:58:00,45.0,44.8,29.74,North,8,13.0,13.0,99,0.36,,,1.36,meteohub,2013-01-17 18:58:00,
2013-01-17 14:03:00,45.0,44.8,29.75,NNE,32,7.0,14.0,99,0.38,,,1.38,meteohub,2013-01-17 19:03:00,
2013-01-17 14:08:00,45.0,44.8,29.75,NNE,23,4.0,15.0,99,0.40,,,1.42,meteohub,2013-01-17 19:08:00,
2013-01-17 14:13:00,44.8,44.6,29.75,ENE,60,2.0,15.0,99,0.40,,,1.45,meteohub,2013-01-17 19:13:00,
2013-01-17 14:18:00,44.8,44.6,29.75,NNW,328,3.0,15.0,99,0.41,,,1.47,meteohub,2013-01-17 19:18:00,
2013-01-17 14:23:00,44.8,44.6,29.76,North,8,3.0,14.0,99,0.41,,,1.49,meteohub,2013-01-17 19:23:00,
2013-01-17 14:28:00,44.4,44.2,29.77,NNW,338,7.0,14.0,99,0.42,,,1.53,meteohub,2013-01-17 19:28:00,
2013-01-17 14:33:00,44.4,44.2,29.79,NE,44,2.0,11.0,99,0.39,,,1.54,meteohub,2013-01-17 19:33:00,
2013-01-17 14:38:00,44.2,43.7,29.80,East,94,15.0,15.0,98,0.35,,,1.58,meteohub,2013-01-17 19:38:00,
2013-01-17 14:43:00,44.1,43.5,29.80,WNW,291,2.0,15.0,98,0.37,,,1.62,meteohub,2013-01-17 19:43:00,
2013-01-17 14:48:00,43.9,43.3,29.79,ENE,70,1.0,15.0,98,0.35,,,1.63,meteohub,2013-01-17 19:48:00,
2013-01-17 14:53:00,43.5,43.0,29.79,NE,53,5.0,15.0,98,0.32,,,1.66,meteohub,2013-01-17 19:53:00,
2013-01-17 14:58:00,43.3,42.8,29.79,North,1,3.0,15.0,98,0.32,,,1.69,meteohub,2013-01-17 19:58:00,
2013-01-17 15:03:00,43.0,42.4,29.79,WNW,297,9.0,15.0,98,0.29,,,1.70,meteohub,2013-01-17 20:03:00,
2013-01-17 15:08:00,43.0,42.4,29.78,NNE,32,4.0,15.0,98,0.30,,,1.73,meteohub,2013-01-17 20:08:00,
2013-01-17 15:13:00,42.6,42.1,29.75,NNW,335,5.0,15.0,98,0.29,,,1.75,meteohub,2013-01-17 20:13:00,
2013-01-17 15:18:00,42.6,42.1,29.75,NNE,16,8.0,16.0,98,0.28,,,1.76,meteohub,2013-01-17 20:18:00,
2013-01-17 15:23:00,42.4,41.9,29.76,NNE,20,0.0,16.0,98,0.27,,,1.78,meteohub,2013-01-17 20:23:00,
2013-01-17 15:28:00,42.3,41.7,29.75,NE,56,2.0,19.0,98,0.27,,,1.80,meteohub,2013-01-17 20:28:00,
2013-01-17 15:33:00,42.3,41.5,29.74,ENE,61,4.0,19.0,97,0.25,,,1.81,meteohub,2013-01-17 20:33:00,
2013-01-17 15:38:00,42.3,41.5,29.73,NNE,15,5.0,25.0,97,0.25,,,1.84,meteohub,2013-01-17 20:38:00,
2013-01-17 15:43:00,41.9,41.2,29.74,ENE,76,9.0,25.0,97,0.25,,,1.87,meteohub,2013-01-17 20:43:00,
2013-01-17 15:48:00,41.7,41.0,29.74,North,349,6.0,20.0,97,0.24,,,1.88,meteohub,2013-01-17 20:48:00,
2013-01-17 15:53:00,41.5,40.8,29.73,NNE,27,7.0,27.0,97,0.23,,,1.90,meteohub,2013-01-17 20:53:00,
2013-01-17 15:58:00,41.4,40.6,29.71,East,82,11.0,27.0,97,0.22,,,1.91,meteohub,2013-01-17 20:58:00,
2013-01-17 16:03:00,41.4,40.8,29.74,NE,43,9.0,18.0,98,0.20,,,1.91,meteohub,2013-01-17 21:03:00,
2013-01-17 16:08:00,41.2,40.5,29.71,NNW,327,4.0,18.0,97,0.19,,,1.92,meteohub,2013-01-17 21:08:00,
2013-01-17 16:14:00,41.0,40.3,29.72,ENE,76,6.0,19.0,97,0.17,,,1.92,meteohub,2013-01-17 21:14:00,
2013-01-17 16:18:00,40.8,40.1,29.73,SW,226,4.0,19.0,97,0.15,,,1.92,meteohub,2013-01-17 21:18:00,
2013-01-17 16:24:00,40.6,39.9,29.73,WNW,303,5.0,19.0,97,0.13,,,1.92,meteohub,2013-01-17 21:24:00,
2013-01-17 16:29:00,40.6,39.9,29.74,NE,55,7.0,22.0,97,0.12,,,1.92,meteohub,2013-01-17 21:29:00,
2013-01-17 16:34:00,40.6,39.9,29.76,NNE,19,4.0,22.0,97,0.11,,,1.93,meteohub,2013-01-17 21:34:00,
2013-01-17 16:39:00,40.6,39.9,29.77,NW,315,3.0,22.0,97,0.08,,,1.93,meteohub,2013-01-17 21:39:00,
2013-01-17 16:44:00,40.6,39.9,29.77,NNW,336,9.0,21.0,97,0.06,,,1.93,meteohub,2013-01-17 21:44:00,
2013-01-17 16:49:00,40.6,39.9,29.79,ENE,60,8.0,17.0,97,0.03,,,1.93,meteohub,2013-01-17 21:49:00,
2013-01-17 16:54:00,40.5,39.7,29.78,NNW,337,4.0,17.0,97,0.03,,,1.93,meteohub,2013-01-17 21:54:00,
2013-01-17 16:59:00,40.5,39.7,29.78,WNW,297,3.0,16.0,97,0.02,,,1.93,meteohub,2013-01-17 21:59:00,
2013-01-17 17:04:00,40.5,39.7,29.79,NNE,19,5.0,11.0,97,0.02,,,1.93,meteohub,2013-01-17 22:04:00,
2013-01-17 17:09:00,40.5,39.7,29.81,NNW,347,2.0,11.0,97,0.01,,,1.93,meteohub,2013-01-17 22:09:00,
2013-01-17 17:14:00,40.5,39.7,29.81,NNW,348,0.0,14.0,97,0.01,,,1.93,meteohub,2013-01-17 22:14:00,
2013-01-17 17:19:00,40.3,39.6,29.82,West,277,4.0,14.0,97,0.01,,,1.93,meteohub,2013-01-17 22:19:00,
2013-01-17 17:24:00,40.3,39.6,29.82,NW,317,2.0,14.0,97,0.02,,,1.94,meteohub,2013-01-17 22:24:00,
2013-01-17 17:29:00,40.3,39.6,29.83,NNE,27,1.0,12.0,97,0.02,,,1.95,meteohub,2013-01-17 22:29:00,
2013-01-17 17:34:00,40.3,39.6,29.82,NNE,22,2.0,8.0,97,0.02,,,1.95,meteohub,2013-01-17 22:34:00,
2013-01-17 17:39:00,40.1,39.4,29.83,NW,305,3.0,8.0,97,0.02,,,1.95,meteohub,2013-01-17 22:39:00,
2013-01-17 17:44:00,39.9,39.2,29.83,WNW,295,3.0,8.0,97,0.03,,,1.96,meteohub,2013-01-17 22:44:00,
2013-01-17 17:49:00,40.1,39.4,29.84,NE,39,2.0,8.0,97,0.03,,,1.96,meteohub,2013-01-17 22:49:00,
2013-01-17 17:54:00,39.9,38.8,29.84,NNE,30,7.0,8.0,96,0.03,,,1.96,meteohub,2013-01-17 22:54:00,
2013-01-17 17:59:00,39.7,38.1,29.85,North,6,4.0,14.0,94,0.03,,,1.96,meteohub,2013-01-17 22:59:00,
2013-01-17 18:04:00,39.4,37.6,29.85,NNW,348,9.0,14.0,93,0.03,,,1.96,meteohub,2013-01-17 23:04:00,
2013-01-17 18:09:00,38.8,37.2,29.86,NW,315,10.0,18.0,94,0.04,,,1.97,meteohub,2013-01-17 23:09:00,
2013-01-17 18:14:00,38.5,36.9,29.87,WSW,250,5.0,18.0,94,0.04,,,1.97,meteohub,2013-01-17 23:14:00,
2013-01-17 18:19:00,38.3,36.5,29.88,SW,226,3.0,18.0,93,0.04,,,1.98,meteohub,2013-01-17 23:19:00,
2013-01-17 18:24:00,38.1,36.0,29.88,WNW,301,7.0,14.0,92,0.03,,,1.98,meteohub,2013-01-17 23:24:00,
2013-01-17 18:29:00,38.1,36.3,29.90,NNW,346,0.0,14.0,93,0.03,,,1.98,meteohub,2013-01-17 23:29:00,
2013-01-17 18:34:00,37.9,36.1,29.91,East,82,0.0,11.0,93,0.03,,,1.98,meteohub,2013-01-17 23:34:00,
2013-01-17 18:39:00,37.9,36.3,29.92,NE,49,0.0,10.0,94,0.03,,,1.98,meteohub,2013-01-17 23:39:00,
2013-01-17 18:44:00,37.9,36.3,29.93,NE,39,0.0,8.0,94,0.02,,,1.98,meteohub,2013-01-17 23:44:00,
2013-01-17 18:49:00,37.8,36.1,29.94,ENE,67,2.0,8.0,94,0.03,,,1.99,meteohub,2013-01-17 23:49:00,
2013-01-17 18:54:00,37.8,36.5,29.95,WNW,284,1.0,5.0,95,0.04,,,2.00,meteohub,2013-01-17 23:54:00,
2013-01-17 18:59:00,36.9,35.6,29.96,West,259,0.0,6.0,95,0.05,,,2.01,meteohub,2013-01-17 23:59:00,
2013-01-17 19:04:00,36.9,35.6,29.96,West,259,0.0,6.0,95,0.06,,,2.02,meteohub,2013-01-18 00:04:00,
2013-01-17 19:09:00,36.9,35.6,29.98,North,-999,-999.0,6.0,95,0.05,,,2.02,meteohub,2013-01-18 00:09:00,